sensor_id;sensor_type;location;lat;lon;timestamp;P1;durP1;ratioP1;P2;durP2;ratioP2
26014;SDS011;13793;55.388;37.844;2024-01-25T00:00:16;30.33;;;15.67;;
26014;SDS011;13793;55.388;37.844;2024-01-25T00:02:47;28.13;;;14.30;;
26014;SDS011;13793;55.388;37.844;2024-01-25T00:05:19;30.30;;;15.10;;
26014;SDS011;13793;55.388;37.844;2024-01-25T00:07:49;27.40;;;14.33;;
26014;SDS011;13793;55.388;37.844;2024-01-25T00:10:21;28.27;;;14.50;;
26014;SDS011;13793;55.388;37.844;2024-01-25T00:12:52;28.17;;;15.83;;
26014;SDS011;13793;55.388;37.844;2024-01-25T00:15:23;27.80;;;14.30;;
26014;SDS011;13793;55.388;37.844;2024-01-25T00:17:53;26.67;;;14.43;;
26014;SDS011;13793;55.388;37.844;2024-01-25T00:20:26;30.73;;;15.70;;
26014;SDS011;13793;55.388;37.844;2024-01-25T00:22:57;35.33;;;16.63;;
26014;SDS011;13793;55.388;37.844;2024-01-25T00:25:28;29.43;;;16.53;;
26014;SDS011;13793;55.388;37.844;2024-01-25T00:27:59;32.63;;;16.47;;
26014;SDS011;13793;55.388;37.844;2024-01-25T00:30:30;32.90;;;16.03;;
26014;SDS011;13793;55.388;37.844;2024-01-25T00:33:03;31.80;;;15.73;;
26014;SDS011;13793;55.388;37.844;2024-01-25T00:35:35;30.90;;;15.87;;
26014;SDS011;13793;55.388;37.844;2024-01-25T00:38:06;31.17;;;15.80;;
26014;SDS011;13793;55.388;37.844;2024-01-25T00:40:38;31.63;;;16.63;;
26014;SDS011;13793;55.388;37.844;2024-01-25T00:43:09;31.70;;;15.90;;
26014;SDS011;13793;55.388;37.844;2024-01-25T00:45:40;26.90;;;15.83;;
26014;SDS011;13793;55.388;37.844;2024-01-25T00:48:12;29.93;;;15.87;;
26014;SDS011;13793;55.388;37.844;2024-01-25T00:50:43;30.13;;;16.03;;
26014;SDS011;13793;55.388;37.844;2024-01-25T00:53:15;34.17;;;16.80;;
26014;SDS011;13793;55.388;37.844;2024-01-25T00:55:47;31.07;;;16.77;;
26014;SDS011;13793;55.388;37.844;2024-01-25T00:58:18;30.73;;;16.73;;
26014;SDS011;13793;55.388;37.844;2024-01-25T01:00:49;32.53;;;15.80;;
26014;SDS011;13793;55.388;37.844;2024-01-25T01:03:21;31.67;;;16.80;;
26014;SDS011;13793;55.388;37.844;2024-01-25T01:05:52;29.80;;;16.33;;
26014;SDS011;13793;55.388;37.844;2024-01-25T01:08:25;31.10;;;15.93;;
26014;SDS011;13793;55.388;37.844;2024-01-25T01:10:56;36.20;;;18.03;;
26014;SDS011;13793;55.388;37.844;2024-01-25T01:13:27;33.53;;;17.63;;
26014;SDS011;13793;55.388;37.844;2024-01-25T01:15:59;36.23;;;17.13;;
26014;SDS011;13793;55.388;37.844;2024-01-25T01:18:30;33.27;;;17.67;;
26014;SDS011;13793;55.388;37.844;2024-01-25T01:21:01;39.30;;;18.23;;
26014;SDS011;13793;55.388;37.844;2024-01-25T01:23:32;36.00;;;18.13;;
26014;SDS011;13793;55.388;37.844;2024-01-25T01:26:03;36.27;;;18.57;;
26014;SDS011;13793;55.388;37.844;2024-01-25T01:28:35;35.73;;;17.23;;
26014;SDS011;13793;55.388;37.844;2024-01-25T01:31:05;33.57;;;17.87;;
26014;SDS011;13793;55.388;37.844;2024-01-25T01:33:36;34.97;;;17.17;;
26014;SDS011;13793;55.388;37.844;2024-01-25T01:36:07;34.93;;;17.93;;
26014;SDS011;13793;55.388;37.844;2024-01-25T01:38:39;30.70;;;16.73;;
26014;SDS011;13793;55.388;37.844;2024-01-25T01:41:10;34.10;;;16.20;;
26014;SDS011;13793;55.388;37.844;2024-01-25T01:43:41;35.30;;;17.97;;
26014;SDS011;13793;55.388;37.844;2024-01-25T01:46:19;32.63;;;15.63;;
26014;SDS011;13793;55.388;37.844;2024-01-25T01:48:47;33.20;;;16.33;;
26014;SDS011;13793;55.388;37.844;2024-01-25T01:51:18;31.87;;;16.40;;
26014;SDS011;13793;55.388;37.844;2024-01-25T01:53:49;29.37;;;16.20;;
26014;SDS011;13793;55.388;37.844;2024-01-25T01:56:21;31.00;;;15.30;;
26014;SDS011;13793;55.388;37.844;2024-01-25T01:58:52;30.97;;;15.70;;
26014;SDS011;13793;55.388;37.844;2024-01-25T02:01:23;28.40;;;15.07;;
26014;SDS011;13793;55.388;37.844;2024-01-25T02:03:55;32.33;;;16.47;;
26014;SDS011;13793;55.388;37.844;2024-01-25T02:06:26;27.90;;;16.00;;
26014;SDS011;13793;55.388;37.844;2024-01-25T02:08:57;30.10;;;15.57;;
26014;SDS011;13793;55.388;37.844;2024-01-25T02:11:29;30.80;;;15.57;;
26014;SDS011;13793;55.388;37.844;2024-01-25T02:14:03;27.47;;;14.90;;
26014;SDS011;13793;55.388;37.844;2024-01-25T02:16:35;25.47;;;13.97;;
26014;SDS011;13793;55.388;37.844;2024-01-25T02:19:06;31.30;;;14.47;;
26014;SDS011;13793;55.388;37.844;2024-01-25T02:21:38;27.43;;;14.00;;
26014;SDS011;13793;55.388;37.844;2024-01-25T02:24:09;28.33;;;14.57;;
26014;SDS011;13793;55.388;37.844;2024-01-25T02:26:40;29.73;;;14.80;;
26014;SDS011;13793;55.388;37.844;2024-01-25T02:29:11;29.97;;;15.63;;
26014;SDS011;13793;55.388;37.844;2024-01-25T02:31:42;27.77;;;14.87;;
26014;SDS011;13793;55.388;37.844;2024-01-25T02:34:13;29.27;;;14.27;;
26014;SDS011;13793;55.388;37.844;2024-01-25T02:36:44;27.87;;;14.83;;
26014;SDS011;13793;55.388;37.844;2024-01-25T02:39:16;29.07;;;14.87;;
26014;SDS011;13793;55.388;37.844;2024-01-25T02:41:47;31.90;;;14.97;;
26014;SDS011;13793;55.388;37.844;2024-01-25T02:44:18;28.53;;;15.47;;
26014;SDS011;13793;55.388;37.844;2024-01-25T02:46:49;30.07;;;14.10;;
26014;SDS011;13793;55.388;37.844;2024-01-25T02:49:20;27.73;;;13.97;;
26014;SDS011;13793;55.388;37.844;2024-01-25T02:51:53;31.20;;;15.83;;
26014;SDS011;13793;55.388;37.844;2024-01-25T02:54:24;26.03;;;13.87;;
26014;SDS011;13793;55.388;37.844;2024-01-25T02:56:55;30.67;;;15.83;;
26014;SDS011;13793;55.388;37.844;2024-01-25T02:59:26;30.47;;;15.47;;
26014;SDS011;13793;55.388;37.844;2024-01-25T03:01:58;33.60;;;14.80;;
26014;SDS011;13793;55.388;37.844;2024-01-25T03:04:28;28.43;;;14.43;;
26014;SDS011;13793;55.388;37.844;2024-01-25T03:07:00;26.30;;;13.50;;
26014;SDS011;13793;55.388;37.844;2024-01-25T03:09:34;29.03;;;15.00;;
26014;SDS011;13793;55.388;37.844;2024-01-25T03:12:05;28.57;;;15.40;;
26014;SDS011;13793;55.388;37.844;2024-01-25T03:14:36;24.23;;;13.40;;
26014;SDS011;13793;55.388;37.844;2024-01-25T03:17:07;24.10;;;12.93;;
26014;SDS011;13793;55.388;37.844;2024-01-25T03:19:38;30.93;;;14.43;;
26014;SDS011;13793;55.388;37.844;2024-01-25T03:22:09;28.60;;;14.63;;
26014;SDS011;13793;55.388;37.844;2024-01-25T03:24:40;29.20;;;14.43;;
26014;SDS011;13793;55.388;37.844;2024-01-25T03:27:11;26.73;;;14.50;;
26014;SDS011;13793;55.388;37.844;2024-01-25T03:29:43;29.67;;;14.83;;
26014;SDS011;13793;55.388;37.844;2024-01-25T03:32:14;32.90;;;16.70;;
26014;SDS011;13793;55.388;37.844;2024-01-25T03:34:45;29.17;;;15.77;;
26014;SDS011;13793;55.388;37.844;2024-01-25T03:37:16;31.93;;;15.67;;
26014;SDS011;13793;55.388;37.844;2024-01-25T03:39:47;32.43;;;16.77;;
26014;SDS011;13793;55.388;37.844;2024-01-25T03:42:21;28.90;;;15.30;;
26014;SDS011;13793;55.388;37.844;2024-01-25T03:44:52;30.00;;;15.77;;
26014;SDS011;13793;55.388;37.844;2024-01-25T03:47:24;31.40;;;16.67;;
26014;SDS011;13793;55.388;37.844;2024-01-25T03:49:55;30.20;;;16.17;;
26014;SDS011;13793;55.388;37.844;2024-01-25T03:52:26;31.57;;;15.70;;
26014;SDS011;13793;55.388;37.844;2024-01-25T03:54:59;27.87;;;14.93;;
26014;SDS011;13793;55.388;37.844;2024-01-25T03:57:31;31.97;;;16.70;;
26014;SDS011;13793;55.388;37.844;2024-01-25T04:00:02;31.27;;;15.77;;
26014;SDS011;13793;55.388;37.844;2024-01-25T04:02:34;33.30;;;17.07;;
26014;SDS011;13793;55.388;37.844;2024-01-25T04:05:05;34.93;;;17.47;;
26014;SDS011;13793;55.388;37.844;2024-01-25T04:07:37;33.73;;;17.23;;
26014;SDS011;13793;55.388;37.844;2024-01-25T04:10:08;31.93;;;16.53;;
26014;SDS011;13793;55.388;37.844;2024-01-25T04:12:39;34.73;;;18.57;;
26014;SDS011;13793;55.388;37.844;2024-01-25T04:15:10;32.83;;;18.43;;
26014;SDS011;13793;55.388;37.844;2024-01-25T04:17:41;33.63;;;19.27;;
26014;SDS011;13793;55.388;37.844;2024-01-25T04:20:12;33.27;;;17.40;;
26014;SDS011;13793;55.388;37.844;2024-01-25T04:22:44;37.37;;;20.07;;
26014;SDS011;13793;55.388;37.844;2024-01-25T04:25:15;37.77;;;20.03;;
26014;SDS011;13793;55.388;37.844;2024-01-25T04:27:47;36.30;;;19.07;;
26014;SDS011;13793;55.388;37.844;2024-01-25T04:30:18;34.23;;;19.47;;
26014;SDS011;13793;55.388;37.844;2024-01-25T04:32:49;40.93;;;21.30;;
26014;SDS011;13793;55.388;37.844;2024-01-25T04:35:20;38.63;;;18.73;;
26014;SDS011;13793;55.388;37.844;2024-01-25T04:37:51;36.70;;;18.37;;
26014;SDS011;13793;55.388;37.844;2024-01-25T04:40:22;34.43;;;18.50;;
26014;SDS011;13793;55.388;37.844;2024-01-25T04:42:53;37.17;;;19.23;;
26014;SDS011;13793;55.388;37.844;2024-01-25T04:45:24;35.47;;;19.37;;
26014;SDS011;13793;55.388;37.844;2024-01-25T04:47:55;39.10;;;20.27;;
26014;SDS011;13793;55.388;37.844;2024-01-25T04:50:26;35.40;;;19.27;;
26014;SDS011;13793;55.388;37.844;2024-01-25T04:52:57;41.67;;;19.73;;
26014;SDS011;13793;55.388;37.844;2024-01-25T04:55:31;37.70;;;19.87;;
26014;SDS011;13793;55.388;37.844;2024-01-25T04:58:03;35.50;;;18.87;;
26014;SDS011;13793;55.388;37.844;2024-01-25T05:00:34;36.67;;;18.40;;
26014;SDS011;13793;55.388;37.844;2024-01-25T05:03:06;34.17;;;18.20;;
26014;SDS011;13793;55.388;37.844;2024-01-25T05:05:38;32.87;;;16.77;;
26014;SDS011;13793;55.388;37.844;2024-01-25T05:08:09;33.67;;;16.20;;
26014;SDS011;13793;55.388;37.844;2024-01-25T05:10:40;35.50;;;17.73;;
26014;SDS011;13793;55.388;37.844;2024-01-25T05:13:12;37.33;;;17.70;;
26014;SDS011;13793;55.388;37.844;2024-01-25T05:15:43;35.10;;;18.03;;
26014;SDS011;13793;55.388;37.844;2024-01-25T05:18:14;32.30;;;17.67;;
26014;SDS011;13793;55.388;37.844;2024-01-25T05:20:45;31.70;;;16.60;;
26014;SDS011;13793;55.388;37.844;2024-01-25T05:23:16;32.60;;;18.10;;
26014;SDS011;13793;55.388;37.844;2024-01-25T05:25:47;31.77;;;17.00;;
26014;SDS011;13793;55.388;37.844;2024-01-25T05:28:18;32.67;;;17.03;;
26014;SDS011;13793;55.388;37.844;2024-01-25T05:30:50;34.27;;;16.67;;
26014;SDS011;13793;55.388;37.844;2024-01-25T05:33:21;27.97;;;15.63;;
26014;SDS011;13793;55.388;37.844;2024-01-25T05:35:52;28.93;;;15.83;;
26014;SDS011;13793;55.388;37.844;2024-01-25T05:38:23;31.03;;;16.63;;
26014;SDS011;13793;55.388;37.844;2024-01-25T05:40:54;30.60;;;16.20;;
26014;SDS011;13793;55.388;37.844;2024-01-25T05:43:25;28.43;;;15.80;;
26014;SDS011;13793;55.388;37.844;2024-01-25T05:45:57;29.27;;;14.63;;
26014;SDS011;13793;55.388;37.844;2024-01-25T05:48:27;28.93;;;14.90;;
26014;SDS011;13793;55.388;37.844;2024-01-25T05:50:59;28.13;;;15.43;;
26014;SDS011;13793;55.388;37.844;2024-01-25T05:53:30;32.80;;;16.33;;
26014;SDS011;13793;55.388;37.844;2024-01-25T05:56:01;27.53;;;14.83;;
26014;SDS011;13793;55.388;37.844;2024-01-25T05:58:33;27.23;;;14.23;;
26014;SDS011;13793;55.388;37.844;2024-01-25T06:01:04;27.90;;;14.70;;
26014;SDS011;13793;55.388;37.844;2024-01-25T06:03:35;26.97;;;14.43;;
26014;SDS011;13793;55.388;37.844;2024-01-25T06:06:06;25.23;;;13.90;;
26014;SDS011;13793;55.388;37.844;2024-01-25T06:08:37;28.23;;;12.70;;
26014;SDS011;13793;55.388;37.844;2024-01-25T06:11:08;26.67;;;14.20;;
26014;SDS011;13793;55.388;37.844;2024-01-25T06:13:40;23.67;;;12.90;;
26014;SDS011;13793;55.388;37.844;2024-01-25T06:16:11;25.37;;;13.30;;
26014;SDS011;13793;55.388;37.844;2024-01-25T06:18:42;24.10;;;13.83;;
26014;SDS011;13793;55.388;37.844;2024-01-25T06:21:13;26.87;;;14.97;;
26014;SDS011;13793;55.388;37.844;2024-01-25T06:23:44;28.73;;;15.37;;
26014;SDS011;13793;55.388;37.844;2024-01-25T06:26:15;28.73;;;16.17;;
26014;SDS011;13793;55.388;37.844;2024-01-25T06:28:47;28.70;;;15.20;;
26014;SDS011;13793;55.388;37.844;2024-01-25T06:31:18;29.43;;;15.83;;
26014;SDS011;13793;55.388;37.844;2024-01-25T06:33:49;30.73;;;16.50;;
26014;SDS011;13793;55.388;37.844;2024-01-25T06:36:22;32.13;;;17.07;;
26014;SDS011;13793;55.388;37.844;2024-01-25T06:38:53;29.90;;;15.97;;
26014;SDS011;13793;55.388;37.844;2024-01-25T06:41:25;29.17;;;16.33;;
26014;SDS011;13793;55.388;37.844;2024-01-25T06:43:56;28.40;;;15.60;;
26014;SDS011;13793;55.388;37.844;2024-01-25T06:46:27;27.87;;;16.37;;
26014;SDS011;13793;55.388;37.844;2024-01-25T06:48:58;29.83;;;15.73;;
26014;SDS011;13793;55.388;37.844;2024-01-25T06:51:29;29.80;;;15.23;;
26014;SDS011;13793;55.388;37.844;2024-01-25T06:54:01;24.57;;;14.03;;
26014;SDS011;13793;55.388;37.844;2024-01-25T06:56:34;22.40;;;12.47;;
26014;SDS011;13793;55.388;37.844;2024-01-25T06:59:05;20.40;;;11.83;;
26014;SDS011;13793;55.388;37.844;2024-01-25T07:01:36;21.40;;;12.23;;
26014;SDS011;13793;55.388;37.844;2024-01-25T07:04:07;19.67;;;12.03;;
26014;SDS011;13793;55.388;37.844;2024-01-25T07:06:38;21.37;;;11.57;;
26014;SDS011;13793;55.388;37.844;2024-01-25T07:09:10;22.53;;;11.73;;
26014;SDS011;13793;55.388;37.844;2024-01-25T07:11:42;22.10;;;12.90;;
26014;SDS011;13793;55.388;37.844;2024-01-25T07:14:13;24.30;;;13.10;;
26014;SDS011;13793;55.388;37.844;2024-01-25T07:16:44;22.67;;;12.90;;
26014;SDS011;13793;55.388;37.844;2024-01-25T07:19:16;20.20;;;12.60;;
26014;SDS011;13793;55.388;37.844;2024-01-25T07:21:47;21.93;;;12.03;;
26014;SDS011;13793;55.388;37.844;2024-01-25T07:24:18;21.90;;;11.97;;
26014;SDS011;13793;55.388;37.844;2024-01-25T07:26:49;20.87;;;11.60;;
26014;SDS011;13793;55.388;37.844;2024-01-25T07:29:20;19.30;;;11.70;;
26014;SDS011;13793;55.388;37.844;2024-01-25T07:31:52;17.93;;;11.23;;
26014;SDS011;13793;55.388;37.844;2024-01-25T07:34:23;18.03;;;10.63;;
26014;SDS011;13793;55.388;37.844;2024-01-25T07:36:55;19.10;;;9.83;;
26014;SDS011;13793;55.388;37.844;2024-01-25T07:39:26;19.23;;;11.57;;
26014;SDS011;13793;55.388;37.844;2024-01-25T07:41:57;20.03;;;11.90;;
26014;SDS011;13793;55.388;37.844;2024-01-25T07:44:28;20.10;;;11.40;;
26014;SDS011;13793;55.388;37.844;2024-01-25T07:46:59;18.70;;;11.10;;
26014;SDS011;13793;55.388;37.844;2024-01-25T07:49:31;22.40;;;11.93;;
26014;SDS011;13793;55.388;37.844;2024-01-25T07:52:01;21.87;;;12.07;;
26014;SDS011;13793;55.388;37.844;2024-01-25T07:54:33;19.47;;;11.67;;
26014;SDS011;13793;55.388;37.844;2024-01-25T07:57:04;20.73;;;12.40;;
26014;SDS011;13793;55.388;37.844;2024-01-25T07:59:35;21.43;;;12.47;;
26014;SDS011;13793;55.388;37.844;2024-01-25T08:02:06;20.63;;;12.83;;
26014;SDS011;13793;55.388;37.844;2024-01-25T08:04:36;21.20;;;12.57;;
26014;SDS011;13793;55.388;37.844;2024-01-25T08:07:07;22.07;;;11.90;;
26014;SDS011;13793;55.388;37.844;2024-01-25T08:09:38;22.80;;;13.07;;
26014;SDS011;13793;55.388;37.844;2024-01-25T08:12:09;24.07;;;12.70;;
26014;SDS011;13793;55.388;37.844;2024-01-25T08:14:40;21.10;;;12.53;;
26014;SDS011;13793;55.388;37.844;2024-01-25T08:17:12;22.57;;;12.93;;
26014;SDS011;13793;55.388;37.844;2024-01-25T08:19:43;23.13;;;12.57;;
26014;SDS011;13793;55.388;37.844;2024-01-25T08:22:15;21.83;;;12.07;;
26014;SDS011;13793;55.388;37.844;2024-01-25T08:24:46;22.80;;;12.53;;
26014;SDS011;13793;55.388;37.844;2024-01-25T08:27:17;22.47;;;12.50;;
26014;SDS011;13793;55.388;37.844;2024-01-25T08:29:48;22.07;;;12.63;;
26014;SDS011;13793;55.388;37.844;2024-01-25T08:32:19;21.67;;;12.83;;
26014;SDS011;13793;55.388;37.844;2024-01-25T08:34:51;23.63;;;12.73;;
26014;SDS011;13793;55.388;37.844;2024-01-25T08:37:22;21.10;;;12.20;;
26014;SDS011;13793;55.388;37.844;2024-01-25T08:39:53;21.70;;;12.03;;
26014;SDS011;13793;55.388;37.844;2024-01-25T08:42:24;22.63;;;12.70;;
26014;SDS011;13793;55.388;37.844;2024-01-25T08:44:55;20.67;;;11.83;;
26014;SDS011;13793;55.388;37.844;2024-01-25T08:47:26;23.07;;;12.40;;
26014;SDS011;13793;55.388;37.844;2024-01-25T08:49:58;21.57;;;13.00;;
26014;SDS011;13793;55.388;37.844;2024-01-25T08:52:30;23.93;;;12.83;;
26014;SDS011;13793;55.388;37.844;2024-01-25T08:55:01;22.13;;;13.07;;
26014;SDS011;13793;55.388;37.844;2024-01-25T08:57:32;22.77;;;13.10;;
26014;SDS011;13793;55.388;37.844;2024-01-25T09:00:03;22.70;;;12.07;;
26014;SDS011;13793;55.388;37.844;2024-01-25T09:02:36;21.13;;;12.33;;
26014;SDS011;13793;55.388;37.844;2024-01-25T09:05:08;23.03;;;12.40;;
26014;SDS011;13793;55.388;37.844;2024-01-25T09:07:39;22.03;;;12.40;;
26014;SDS011;13793;55.388;37.844;2024-01-25T09:10:10;19.17;;;11.57;;
26014;SDS011;13793;55.388;37.844;2024-01-25T09:12:41;19.97;;;12.87;;
26014;SDS011;13793;55.388;37.844;2024-01-25T09:15:12;21.90;;;12.73;;
26014;SDS011;13793;55.388;37.844;2024-01-25T09:17:43;22.17;;;13.00;;
26014;SDS011;13793;55.388;37.844;2024-01-25T09:20:14;19.73;;;12.23;;
26014;SDS011;13793;55.388;37.844;2024-01-25T09:22:46;20.33;;;12.47;;
26014;SDS011;13793;55.388;37.844;2024-01-25T09:25:17;23.10;;;12.00;;
26014;SDS011;13793;55.388;37.844;2024-01-25T09:27:48;21.87;;;12.23;;
26014;SDS011;13793;55.388;37.844;2024-01-25T09:30:19;23.57;;;12.67;;
26014;SDS011;13793;55.388;37.844;2024-01-25T09:32:51;22.03;;;13.57;;
26014;SDS011;13793;55.388;37.844;2024-01-25T09:35:22;22.03;;;13.50;;
26014;SDS011;13793;55.388;37.844;2024-01-25T09:37:56;22.43;;;13.30;;
26014;SDS011;13793;55.388;37.844;2024-01-25T09:40:27;25.50;;;14.63;;
26014;SDS011;13793;55.388;37.844;2024-01-25T09:42:58;22.17;;;13.43;;
26014;SDS011;13793;55.388;37.844;2024-01-25T09:45:29;24.53;;;13.93;;
26014;SDS011;13793;55.388;37.844;2024-01-25T09:48:01;20.70;;;13.37;;
26014;SDS011;13793;55.388;37.844;2024-01-25T09:50:33;23.47;;;13.17;;
26014;SDS011;13793;55.388;37.844;2024-01-25T09:53:04;24.90;;;13.97;;
26014;SDS011;13793;55.388;37.844;2024-01-25T09:55:35;24.13;;;14.50;;
26014;SDS011;13793;55.388;37.844;2024-01-25T09:58:08;24.10;;;14.17;;
26014;SDS011;13793;55.388;37.844;2024-01-25T10:00:40;23.47;;;13.87;;
26014;SDS011;13793;55.388;37.844;2024-01-25T10:03:11;27.33;;;14.70;;
26014;SDS011;13793;55.388;37.844;2024-01-25T10:05:42;24.50;;;14.33;;
26014;SDS011;13793;55.388;37.844;2024-01-25T10:08:13;24.13;;;14.90;;
26014;SDS011;13793;55.388;37.844;2024-01-25T10:10:44;24.03;;;14.57;;
26014;SDS011;13793;55.388;37.844;2024-01-25T10:13:16;26.97;;;14.63;;
26014;SDS011;13793;55.388;37.844;2024-01-25T10:15:48;26.10;;;15.27;;
26014;SDS011;13793;55.388;37.844;2024-01-25T10:18:19;24.50;;;15.17;;
26014;SDS011;13793;55.388;37.844;2024-01-25T10:20:54;26.23;;;14.80;;
26014;SDS011;13793;55.388;37.844;2024-01-25T10:23:28;22.57;;;14.40;;
26014;SDS011;13793;55.388;37.844;2024-01-25T10:25:59;25.80;;;15.00;;
26014;SDS011;13793;55.388;37.844;2024-01-25T10:28:30;27.37;;;16.00;;
26014;SDS011;13793;55.388;37.844;2024-01-25T10:31:01;25.47;;;15.53;;
26014;SDS011;13793;55.388;37.844;2024-01-25T10:33:38;24.80;;;14.23;;
26014;SDS011;13793;55.388;37.844;2024-01-25T10:36:09;24.67;;;14.87;;
26014;SDS011;13793;55.388;37.844;2024-01-25T10:38:42;27.03;;;15.10;;
26014;SDS011;13793;55.388;37.844;2024-01-25T10:41:14;24.13;;;14.13;;
26014;SDS011;13793;55.388;37.844;2024-01-25T10:43:45;24.40;;;14.53;;
26014;SDS011;13793;55.388;37.844;2024-01-25T10:46:16;25.53;;;14.73;;
26014;SDS011;13793;55.388;37.844;2024-01-25T10:48:48;25.20;;;14.77;;
26014;SDS011;13793;55.388;37.844;2024-01-25T10:51:19;26.53;;;14.50;;
26014;SDS011;13793;55.388;37.844;2024-01-25T10:53:50;26.23;;;15.17;;
26014;SDS011;13793;55.388;37.844;2024-01-25T10:56:21;27.57;;;14.97;;
26014;SDS011;13793;55.388;37.844;2024-01-25T10:58:52;26.07;;;15.67;;
26014;SDS011;13793;55.388;37.844;2024-01-25T11:01:23;26.43;;;15.07;;
26014;SDS011;13793;55.388;37.844;2024-01-25T11:03:56;30.67;;;16.00;;
26014;SDS011;13793;55.388;37.844;2024-01-25T11:06:27;24.77;;;14.63;;
26014;SDS011;13793;55.388;37.844;2024-01-25T11:09:04;31.13;;;16.17;;
26014;SDS011;13793;55.388;37.844;2024-01-25T11:11:35;29.47;;;16.67;;
26014;SDS011;13793;55.388;37.844;2024-01-25T11:14:10;30.10;;;16.07;;
26014;SDS011;13793;55.388;37.844;2024-01-25T11:16:41;32.10;;;15.57;;
26014;SDS011;13793;55.388;37.844;2024-01-25T11:19:17;24.03;;;15.27;;
26014;SDS011;13793;55.388;37.844;2024-01-25T11:21:50;29.83;;;16.23;;
26014;SDS011;13793;55.388;37.844;2024-01-25T11:24:21;28.57;;;15.80;;
26014;SDS011;13793;55.388;37.844;2024-01-25T11:26:54;30.37;;;15.77;;
26014;SDS011;13793;55.388;37.844;2024-01-25T11:29:25;27.10;;;15.90;;
26014;SDS011;13793;55.388;37.844;2024-01-25T11:31:56;30.77;;;17.97;;
26014;SDS011;13793;55.388;37.844;2024-01-25T11:34:27;29.50;;;18.20;;
26014;SDS011;13793;55.388;37.844;2024-01-25T11:37:00;28.80;;;16.63;;
26014;SDS011;13793;55.388;37.844;2024-01-25T11:39:32;29.90;;;16.97;;
26014;SDS011;13793;55.388;37.844;2024-01-25T11:42:03;29.70;;;17.17;;
26014;SDS011;13793;55.388;37.844;2024-01-25T11:44:34;28.60;;;17.30;;
26014;SDS011;13793;55.388;37.844;2024-01-25T11:47:05;32.07;;;17.90;;
26014;SDS011;13793;55.388;37.844;2024-01-25T11:49:36;32.13;;;17.30;;
26014;SDS011;13793;55.388;37.844;2024-01-25T11:52:07;30.80;;;18.97;;
26014;SDS011;13793;55.388;37.844;2024-01-25T11:54:38;30.20;;;18.20;;
26014;SDS011;13793;55.388;37.844;2024-01-25T11:57:09;32.90;;;19.03;;
26014;SDS011;13793;55.388;37.844;2024-01-25T11:59:40;31.80;;;18.23;;
26014;SDS011;13793;55.388;37.844;2024-01-25T12:02:13;33.07;;;18.07;;
26014;SDS011;13793;55.388;37.844;2024-01-25T12:04:46;32.40;;;18.13;;
26014;SDS011;13793;55.388;37.844;2024-01-25T12:07:17;36.10;;;20.07;;
26014;SDS011;13793;55.388;37.844;2024-01-25T12:10:04;35.30;;;20.20;;
26014;SDS011;13793;55.388;37.844;2024-01-25T12:12:36;32.53;;;19.73;;
26014;SDS011;13793;55.388;37.844;2024-01-25T12:15:07;36.93;;;19.47;;
26014;SDS011;13793;55.388;37.844;2024-01-25T12:17:39;34.77;;;20.20;;
26014;SDS011;13793;55.388;37.844;2024-01-25T12:20:10;37.07;;;20.50;;
26014;SDS011;13793;55.388;37.844;2024-01-25T12:22:41;37.50;;;21.77;;
26014;SDS011;13793;55.388;37.844;2024-01-25T12:25:12;36.77;;;21.20;;
26014;SDS011;13793;55.388;37.844;2024-01-25T12:27:45;37.17;;;20.00;;
26014;SDS011;13793;55.388;37.844;2024-01-25T12:30:18;35.87;;;20.67;;
26014;SDS011;13793;55.388;37.844;2024-01-25T12:32:50;35.83;;;19.30;;
26014;SDS011;13793;55.388;37.844;2024-01-25T12:35:20;38.00;;;19.57;;
26014;SDS011;13793;55.388;37.844;2024-01-25T12:37:52;37.30;;;20.77;;
26014;SDS011;13793;55.388;37.844;2024-01-25T12:40:23;36.37;;;21.43;;
26014;SDS011;13793;55.388;37.844;2024-01-25T12:42:55;41.93;;;21.47;;
26014;SDS011;13793;55.388;37.844;2024-01-25T12:45:26;36.00;;;20.37;;
26014;SDS011;13793;55.388;37.844;2024-01-25T12:47:57;38.10;;;20.53;;
26014;SDS011;13793;55.388;37.844;2024-01-25T12:50:28;38.53;;;22.43;;
26014;SDS011;13793;55.388;37.844;2024-01-25T12:52:59;41.93;;;22.70;;
26014;SDS011;13793;55.388;37.844;2024-01-25T12:55:31;40.10;;;23.60;;
26014;SDS011;13793;55.388;37.844;2024-01-25T12:58:03;40.53;;;22.53;;
26014;SDS011;13793;55.388;37.844;2024-01-25T13:00:35;38.20;;;22.43;;
26014;SDS011;13793;55.388;37.844;2024-01-25T13:03:06;40.40;;;23.10;;
26014;SDS011;13793;55.388;37.844;2024-01-25T13:05:37;42.50;;;22.87;;
26014;SDS011;13793;55.388;37.844;2024-01-25T13:08:08;43.57;;;23.97;;
26014;SDS011;13793;55.388;37.844;2024-01-25T13:10:40;43.10;;;23.37;;
26014;SDS011;13793;55.388;37.844;2024-01-25T13:13:11;39.13;;;23.57;;
26014;SDS011;13793;55.388;37.844;2024-01-25T13:15:42;46.83;;;24.47;;
26014;SDS011;13793;55.388;37.844;2024-01-25T13:18:13;47.90;;;25.73;;
26014;SDS011;13793;55.388;37.844;2024-01-25T13:20:44;44.47;;;24.43;;
26014;SDS011;13793;55.388;37.844;2024-01-25T13:23:16;45.40;;;26.57;;
26014;SDS011;13793;55.388;37.844;2024-01-25T13:25:47;44.30;;;25.30;;
26014;SDS011;13793;55.388;37.844;2024-01-25T13:28:18;45.87;;;25.87;;
26014;SDS011;13793;55.388;37.844;2024-01-25T13:30:49;46.63;;;25.50;;
26014;SDS011;13793;55.388;37.844;2024-01-25T13:33:21;50.27;;;27.13;;
26014;SDS011;13793;55.388;37.844;2024-01-25T13:35:52;45.47;;;25.80;;
26014;SDS011;13793;55.388;37.844;2024-01-25T13:38:23;52.10;;;26.93;;
26014;SDS011;13793;55.388;37.844;2024-01-25T13:40:54;46.70;;;25.63;;
26014;SDS011;13793;55.388;37.844;2024-01-25T13:43:26;51.43;;;27.47;;
26014;SDS011;13793;55.388;37.844;2024-01-25T13:45:57;51.40;;;26.40;;
26014;SDS011;13793;55.388;37.844;2024-01-25T13:48:28;48.53;;;26.57;;
26014;SDS011;13793;55.388;37.844;2024-01-25T13:50:59;49.53;;;27.03;;
26014;SDS011;13793;55.388;37.844;2024-01-25T13:53:30;53.27;;;27.63;;
26014;SDS011;13793;55.388;37.844;2024-01-25T13:56:04;50.43;;;27.20;;
26014;SDS011;13793;55.388;37.844;2024-01-25T13:58:35;51.20;;;27.73;;
26014;SDS011;13793;55.388;37.844;2024-01-25T14:01:06;56.97;;;28.43;;
26014;SDS011;13793;55.388;37.844;2024-01-25T14:03:38;54.70;;;28.53;;
26014;SDS011;13793;55.388;37.844;2024-01-25T14:06:09;56.30;;;30.63;;
26014;SDS011;13793;55.388;37.844;2024-01-25T14:08:40;56.37;;;29.90;;
26014;SDS011;13793;55.388;37.844;2024-01-25T14:11:11;57.37;;;27.83;;
26014;SDS011;13793;55.388;37.844;2024-01-25T14:13:43;58.47;;;29.03;;
26014;SDS011;13793;55.388;37.844;2024-01-25T14:16:16;58.40;;;29.07;;
26014;SDS011;13793;55.388;37.844;2024-01-25T14:18:47;57.90;;;30.43;;
26014;SDS011;13793;55.388;37.844;2024-01-25T14:21:19;58.00;;;29.70;;
26014;SDS011;13793;55.388;37.844;2024-01-25T14:23:50;64.30;;;31.00;;
26014;SDS011;13793;55.388;37.844;2024-01-25T14:26:21;62.97;;;32.33;;
26014;SDS011;13793;55.388;37.844;2024-01-25T14:28:52;62.00;;;31.50;;
26014;SDS011;13793;55.388;37.844;2024-01-25T14:31:24;60.20;;;30.23;;